createdAt,value
2023-05-21T00:01:25.983Z,50.27
2023-05-21T00:03:52.937Z,49.69
2023-05-21T00:06:21.269Z,50.23
2023-05-21T00:08:47.909Z,50.51
2023-05-21T00:11:14.693Z,50.00
2023-05-21T00:13:41.604Z,50.09
2023-05-21T00:16:08.247Z,50.75
2023-05-21T00:18:34.896Z,51.00
2023-05-21T00:21:01.808Z,50.66
2023-05-21T00:23:28.561Z,50.73
2023-05-21T00:25:55.208Z,52.20
2023-05-21T00:28:21.909Z,51.81
2023-05-21T00:30:48.585Z,51.29
2023-05-21T00:33:15.916Z,51.58
2023-05-21T00:35:42.580Z,54.17
2023-05-21T00:38:09.475Z,51.53
2023-05-21T00:40:36.463Z,51.21
2023-05-21T00:43:03.511Z,51.56
2023-05-21T00:45:30.367Z,52.05
2023-05-21T00:47:57.184Z,52.24
2023-05-21T00:50:24.593Z,52.83
2023-05-21T00:52:51.816Z,52.36
2023-05-21T00:55:18.495Z,52.63
2023-05-21T00:57:46.273Z,52.90
2023-05-21T01:00:14.945Z,53.56
2023-05-21T01:02:42.132Z,52.77
2023-05-21T01:05:10.794Z,52.62
2023-05-21T01:07:41.739Z,53.38
2023-05-21T01:10:10.553Z,53.69
2023-05-21T01:12:39.769Z,55.40
2023-05-21T01:15:07.108Z,52.72
2023-05-21T01:17:34.525Z,53.65
2023-05-21T01:20:02.110Z,53.34
2023-05-21T01:22:32.749Z,53.70
2023-05-21T01:25:02.975Z,53.44
2023-05-21T01:27:29.732Z,53.61
2023-05-21T01:29:57.147Z,53.65
2023-05-21T01:32:45.847Z,55.71
2023-05-21T01:35:17.535Z,53.86
2023-05-21T01:37:52.011Z,54.04
2023-05-21T01:40:26.689Z,54.19
2023-05-21T01:42:53.815Z,53.92
2023-05-21T01:45:24.306Z,55.05
2023-05-21T01:47:53.685Z,54.99
2023-05-21T01:50:21.686Z,54.77
2023-05-21T01:53:01.155Z,57.73
2023-05-21T01:55:28.295Z,55.47
2023-05-21T01:57:56.004Z,57.42
2023-05-21T02:00:24.840Z,56.64
2023-05-21T02:02:52.160Z,57.13
2023-05-21T02:05:18.936Z,57.57
2023-05-21T02:07:46.347Z,57.16
2023-05-21T02:10:13.431Z,57.88
2023-05-21T02:12:39.952Z,58.96
2023-05-21T02:15:07.103Z,59.14
2023-05-21T02:17:38.700Z,58.72
2023-05-21T02:20:12.192Z,58.44
2023-05-21T02:22:40.110Z,58.96
2023-05-21T02:25:09.364Z,60.52
2023-05-21T02:27:37.988Z,61.19
2023-05-21T02:30:07.097Z,62.42
2023-05-21T02:32:34.884Z,61.49
2023-05-21T02:35:03.686Z,61.24
2023-05-21T02:37:33.875Z,61.12
2023-05-21T02:40:01.916Z,61.56
2023-05-21T02:42:28.431Z,61.60
2023-05-21T02:44:55.229Z,61.36
2023-05-21T02:47:23.864Z,61.58
2023-05-21T02:49:51.914Z,62.38
2023-05-21T02:52:19.731Z,61.84
2023-05-21T02:54:47.351Z,62.14
2023-05-21T02:57:14.016Z,62.81
2023-05-21T02:59:40.930Z,62.45
2023-05-21T03:02:07.583Z,63.16
2023-05-21T03:04:39.328Z,63.97
2023-05-21T03:07:06.646Z,62.63
2023-05-21T03:09:33.276Z,62.51
2023-05-21T03:11:59.868Z,62.27
2023-05-21T03:14:26.550Z,62.24
2023-05-21T03:16:53.450Z,63.64
2023-05-21T03:19:21.045Z,64.75
2023-05-21T03:21:49.160Z,63.91
2023-05-21T03:24:15.783Z,64.20
2023-05-21T03:26:42.326Z,64.75
2023-05-21T03:29:09.013Z,65.81
2023-05-21T03:31:36.039Z,64.18
2023-05-21T03:34:02.667Z,63.78
2023-05-21T03:36:29.279Z,63.83
2023-05-21T03:38:55.782Z,64.33
2023-05-21T03:41:22.386Z,64.12
2023-05-21T03:43:49.055Z,65.03
2023-05-21T03:46:15.884Z,65.37
2023-05-21T03:48:42.515Z,66.88
2023-05-21T03:51:09.757Z,67.18
2023-05-21T03:53:36.693Z,65.52
2023-05-21T03:56:03.600Z,65.40
2023-05-21T03:58:30.896Z,66.25
2023-05-21T04:00:57.722Z,66.18
2023-05-21T04:03:24.361Z,65.80
2023-05-21T04:05:51.098Z,66.24
2023-05-21T04:08:17.867Z,67.34
2023-05-21T04:10:44.495Z,66.67
2023-05-21T04:13:11.345Z,66.87
2023-05-21T04:15:38.853Z,66.33
2023-05-21T04:18:07.329Z,66.12
2023-05-21T04:20:34.085Z,65.94
2023-05-21T04:23:01.208Z,66.67
2023-05-21T04:25:27.887Z,67.11
2023-05-21T04:27:54.905Z,68.09
2023-05-21T04:30:22.102Z,69.96
2023-05-21T04:32:48.888Z,67.81
2023-05-21T04:35:15.721Z,69.81
2023-05-21T04:37:42.499Z,69.61
2023-05-21T04:40:09.911Z,69.05
2023-05-21T04:42:36.603Z,68.86
2023-05-21T04:45:03.335Z,69.10
2023-05-21T04:47:35.850Z,69.26
2023-05-21T04:50:02.853Z,68.88
2023-05-21T04:52:29.493Z,70.29
2023-05-21T04:54:56.179Z,69.84
2023-05-21T04:57:24.696Z,69.65
2023-05-21T04:59:51.358Z,69.62
2023-05-21T05:02:18.028Z,69.32
2023-05-21T05:04:44.840Z,69.58
2023-05-21T05:07:12.461Z,69.95
2023-05-21T05:09:39.072Z,70.94
2023-05-21T05:12:06.066Z,70.02
2023-05-21T05:14:32.795Z,69.94
2023-05-21T05:17:00.836Z,69.67
2023-05-21T05:19:27.662Z,69.60
2023-05-21T05:21:54.411Z,70.09
2023-05-21T05:24:21.033Z,70.55
2023-05-21T05:26:47.754Z,70.47
2023-05-21T05:29:14.443Z,70.29
2023-05-21T05:31:41.505Z,70.29
2023-05-21T05:34:08.065Z,70.71
2023-05-21T05:36:34.725Z,70.26
2023-05-21T05:39:01.392Z,71.68
2023-05-21T05:41:28.183Z,70.68
2023-05-21T05:43:55.037Z,70.65
2023-05-21T05:46:21.782Z,71.00
2023-05-21T05:48:48.520Z,70.84
2023-05-21T05:51:17.175Z,71.28
2023-05-21T05:53:43.830Z,71.92
2023-05-21T05:56:10.617Z,71.48
2023-05-21T05:58:37.489Z,71.09
2023-05-21T06:01:04.115Z,70.96
2023-05-21T06:03:30.957Z,70.96
2023-05-21T06:05:57.727Z,70.70
2023-05-21T06:08:24.645Z,70.73
2023-05-21T06:10:51.510Z,70.29
2023-05-21T06:13:18.186Z,71.32
2023-05-21T06:15:44.777Z,70.88
2023-05-21T06:18:11.604Z,70.95
2023-05-21T06:20:38.466Z,71.33
2023-05-21T06:23:06.545Z,71.18
2023-05-21T06:25:33.183Z,71.57
2023-05-21T06:27:59.962Z,71.27
2023-05-21T06:30:26.591Z,71.43
2023-05-21T06:32:53.251Z,71.60
2023-05-21T06:35:20.304Z,71.18
2023-05-21T06:37:46.934Z,70.62
2023-05-21T06:40:13.681Z,71.68
2023-05-21T06:42:40.470Z,70.21
2023-05-21T06:45:07.798Z,71.34
2023-05-21T06:47:34.563Z,72.27
2023-05-21T06:50:01.175Z,72.33
2023-05-21T06:52:27.846Z,69.58
2023-05-21T06:54:54.470Z,71.49
2023-05-21T06:57:21.017Z,68.83
2023-05-21T06:59:47.767Z,70.38
2023-05-21T07:02:14.488Z,71.16
2023-05-21T07:04:41.257Z,70.62
2023-05-21T07:07:07.886Z,70.67
2023-05-21T07:09:34.565Z,70.58
2023-05-21T07:12:02.242Z,70.00
2023-05-21T07:14:28.881Z,69.73
2023-05-21T07:16:55.471Z,69.65
2023-05-21T07:19:22.203Z,69.85
2023-05-21T07:21:49.442Z,69.48
2023-05-21T07:24:16.080Z,67.96
2023-05-21T07:26:42.717Z,68.12
2023-05-21T07:29:09.455Z,68.02
2023-05-21T07:31:36.245Z,65.10
2023-05-21T07:34:02.928Z,65.40
2023-05-21T07:36:30.050Z,66.07
2023-05-21T07:38:56.728Z,65.05
2023-05-21T07:41:23.411Z,65.81
2023-05-21T07:43:49.995Z,65.54
2023-05-21T07:46:16.654Z,64.23
2023-05-21T07:48:43.878Z,65.16
2023-05-21T07:51:11.596Z,64.13
2023-05-21T07:53:38.248Z,63.90
2023-05-21T07:56:05.162Z,64.33
2023-05-21T07:58:32.825Z,63.49
2023-05-21T08:00:59.438Z,62.53
2023-05-21T08:03:26.745Z,62.43
2023-05-21T08:05:53.614Z,63.37
2023-05-21T08:08:20.327Z,62.49
2023-05-21T08:10:47.917Z,62.87
2023-05-21T08:13:16.398Z,63.13
2023-05-21T08:15:43.219Z,62.66
2023-05-21T08:18:10.009Z,62.42
2023-05-21T08:20:37.077Z,62.32
2023-05-21T08:23:04.193Z,62.39
2023-05-21T08:25:30.993Z,62.41
2023-05-21T08:27:57.838Z,62.27
2023-05-21T08:30:24.578Z,62.14
2023-05-21T08:32:51.382Z,62.17
2023-05-21T08:35:18.205Z,61.77
2023-05-21T08:37:44.995Z,62.00
2023-05-21T08:40:12.363Z,61.53
2023-05-21T08:42:45.419Z,61.84
2023-05-21T08:45:14.389Z,61.61
2023-05-21T08:47:44.504Z,61.25
2023-05-21T08:50:16.493Z,61.15
2023-05-21T08:52:43.109Z,61.05
2023-05-21T08:55:10.467Z,61.33
2023-05-21T08:57:37.370Z,61.11
2023-05-21T09:00:07.169Z,60.57
2023-05-21T09:02:35.337Z,60.82
2023-05-21T09:05:03.483Z,60.50
2023-05-21T09:07:31.937Z,60.73
2023-05-21T09:10:05.733Z,60.32
2023-05-21T09:12:32.885Z,59.54
2023-05-21T09:15:01.340Z,59.19
2023-05-21T09:17:28.182Z,59.26
2023-05-21T09:20:15.289Z,59.04
2023-05-21T09:22:42.965Z,58.40
2023-05-21T09:25:11.642Z,57.64
2023-05-21T09:27:38.922Z,58.33
2023-05-21T09:30:11.501Z,57.90
2023-05-21T09:32:39.317Z,57.57
2023-05-21T09:35:10.730Z,58.00
2023-05-21T09:37:45.372Z,57.63
2023-05-21T09:40:16.459Z,57.52
2023-05-21T09:42:47.987Z,56.15
2023-05-21T09:45:26.212Z,56.44
2023-05-21T09:47:54.897Z,56.03
2023-05-21T09:50:29.501Z,55.53
2023-05-21T09:52:56.412Z,55.67
2023-05-21T09:55:24.895Z,55.82
2023-05-21T09:57:53.060Z,55.87
2023-05-21T10:00:24.457Z,56.17
2023-05-21T10:02:55.802Z,56.01
2023-05-21T10:05:26.657Z,55.95
2023-05-21T10:07:57.870Z,55.68
2023-05-21T10:10:24.527Z,54.97
2023-05-21T10:12:59.116Z,54.32
2023-05-21T10:15:30.317Z,54.48
2023-05-21T10:17:57.649Z,54.75
2023-05-21T10:20:24.819Z,54.90
2023-05-21T10:22:52.172Z,54.84
2023-05-21T10:25:19.926Z,54.82
2023-05-21T10:27:48.524Z,55.08
2023-05-21T10:30:15.832Z,54.74
2023-05-21T10:32:43.029Z,54.35
2023-05-21T10:35:10.845Z,54.07
2023-05-21T10:37:37.850Z,54.45
2023-05-21T10:40:04.992Z,54.25
2023-05-21T10:42:36.210Z,54.19
2023-05-21T10:45:27.607Z,53.68
2023-05-21T10:48:57.951Z,53.67
2023-05-21T10:51:49.470Z,54.02
2023-05-21T10:54:48.883Z,53.84
2023-05-21T10:57:42.499Z,52.84
2023-05-21T11:00:12.762Z,53.27
2023-05-21T11:02:39.950Z,53.70
2023-05-21T11:05:07.195Z,53.09
2023-05-21T11:07:59.588Z,52.82
2023-05-21T11:10:40.997Z,52.14
2023-05-21T11:13:15.586Z,52.44
2023-05-21T11:16:01.383Z,52.78
2023-05-21T11:18:38.937Z,52.85
2023-05-21T11:21:06.481Z,53.14
2023-05-21T11:23:55.438Z,52.43
2023-05-21T11:26:26.368Z,52.37
2023-05-21T11:29:08.897Z,52.61
2023-05-21T11:31:39.373Z,52.57
2023-05-21T11:34:28.417Z,52.19
2023-05-21T11:37:21.818Z,51.96
2023-05-21T11:39:49.927Z,52.34
2023-05-21T11:42:38.991Z,52.17
2023-05-21T11:45:06.127Z,52.76
2023-05-21T11:47:33.110Z,52.10
2023-05-21T11:50:01.964Z,51.92
2023-05-21T11:52:30.241Z,52.13
2023-05-21T11:55:00.096Z,51.75
2023-05-21T11:57:33.328Z,51.83
2023-05-21T12:00:02.644Z,51.33
2023-05-21T12:02:33.192Z,51.50
2023-05-21T12:05:00.898Z,51.54
2023-05-21T12:07:29.882Z,52.06
2023-05-21T12:09:57.538Z,51.50
2023-05-21T12:12:33.081Z,51.45
2023-05-21T12:15:06.996Z,51.53
2023-05-21T12:17:34.251Z,51.02
2023-05-21T12:20:02.234Z,50.84
2023-05-21T12:22:29.901Z,50.75
2023-05-21T12:24:58.468Z,50.12
2023-05-21T12:27:25.226Z,50.80
2023-05-21T12:29:53.207Z,51.23
2023-05-21T12:32:21.652Z,51.21
2023-05-21T12:34:52.739Z,51.00
2023-05-21T12:37:25.435Z,50.65
2023-05-21T12:39:53.914Z,51.50
2023-05-21T12:42:27.989Z,51.36
2023-05-21T12:44:54.974Z,51.94
2023-05-21T12:47:28.179Z,50.97
2023-05-21T12:49:58.122Z,51.31
2023-05-21T12:52:25.628Z,51.08
2023-05-21T12:54:56.343Z,50.94
2023-05-21T12:57:30.010Z,50.88
2023-05-21T13:00:01.271Z,50.57
2023-05-21T13:02:29.921Z,50.40
2023-05-21T13:05:03.955Z,50.87
2023-05-21T13:07:32.434Z,51.12
2023-05-21T13:10:00.792Z,50.55
2023-05-21T13:12:29.836Z,50.84
2023-05-21T13:14:58.183Z,51.19
2023-05-21T13:17:26.266Z,51.17
2023-05-21T13:20:12.678Z,50.58
2023-05-21T13:22:46.692Z,50.95
2023-05-21T13:25:19.874Z,50.73
2023-05-21T13:27:50.261Z,50.87
2023-05-21T13:30:17.664Z,50.73
2023-05-21T13:32:45.010Z,50.79
2023-05-21T13:35:12.571Z,50.86
2023-05-21T13:37:40.891Z,50.46
2023-05-21T13:40:11.254Z,50.77
2023-05-21T13:42:38.910Z,50.58
2023-05-21T13:45:10.448Z,50.81
2023-05-21T13:47:39.922Z,50.74
2023-05-21T13:50:08.370Z,50.36
2023-05-21T13:52:35.237Z,50.65
2023-05-21T13:55:02.197Z,50.66
2023-05-21T13:57:31.022Z,50.59
2023-05-21T13:59:59.222Z,50.70
2023-05-21T14:02:26.482Z,50.73
2023-05-21T14:04:53.988Z,50.08
2023-05-21T14:07:21.578Z,50.60
2023-05-21T14:09:48.481Z,50.51
2023-05-21T14:12:15.219Z,51.12
2023-05-21T14:14:42.309Z,50.75
2023-05-21T14:17:09.004Z,50.44
2023-05-21T14:19:35.825Z,50.29
2023-05-21T14:22:02.476Z,50.07
2023-05-21T14:24:29.146Z,50.14
2023-05-21T14:26:56.091Z,50.34
2023-05-21T14:29:23.302Z,50.89
2023-05-21T14:31:50.058Z,50.77
2023-05-21T14:34:16.739Z,50.55
2023-05-21T14:36:43.552Z,50.55
2023-05-21T14:39:10.270Z,50.21
2023-05-21T14:41:39.590Z,50.34
2023-05-21T14:44:06.182Z,50.65
2023-05-21T14:46:33.113Z,50.70
2023-05-21T14:49:00.594Z,50.21
2023-05-21T14:51:27.266Z,50.73
2023-05-21T14:53:54.040Z,51.08
2023-05-21T14:56:21.903Z,51.24
2023-05-21T14:58:48.709Z,50.81
2023-05-21T15:01:15.502Z,50.79
2023-05-21T15:03:42.226Z,51.88
2023-05-21T15:06:09.434Z,51.33
2023-05-21T15:08:36.284Z,51.79
2023-05-21T15:11:02.895Z,51.41
2023-05-21T15:13:29.506Z,52.38
2023-05-21T15:15:56.286Z,52.49
2023-05-21T15:18:24.718Z,52.96
2023-05-21T15:20:51.581Z,52.58
2023-05-21T15:23:18.465Z,52.29
2023-05-21T15:25:45.865Z,52.80
2023-05-21T15:28:13.084Z,52.46
2023-05-21T15:30:40.476Z,53.15
2023-05-21T15:33:07.276Z,53.00
2023-05-21T15:35:35.956Z,53.22
2023-05-21T15:38:03.154Z,53.51
2023-05-21T15:40:29.722Z,53.34
2023-05-21T15:42:56.359Z,53.57
2023-05-21T15:45:22.970Z,53.81
2023-05-21T15:47:49.661Z,53.63
2023-05-21T15:50:16.325Z,53.13
2023-05-21T15:52:43.184Z,53.35
2023-05-21T15:55:10.035Z,53.43
2023-05-21T15:57:36.874Z,53.77
2023-05-21T16:00:04.975Z,53.97
2023-05-21T16:02:31.548Z,53.78
2023-05-21T16:04:58.160Z,53.86
2023-05-21T16:07:24.831Z,53.56
2023-05-21T16:09:51.570Z,54.31
2023-05-21T16:12:18.408Z,54.26
2023-05-21T16:14:45.057Z,53.98
2023-05-21T16:17:11.925Z,54.12
2023-05-21T16:19:39.044Z,54.49
2023-05-21T16:22:05.961Z,54.01
2023-05-21T16:24:32.907Z,54.29
2023-05-21T16:26:59.468Z,54.17
2023-05-21T16:29:26.056Z,54.19
2023-05-21T16:31:52.633Z,54.45
2023-05-21T16:34:19.329Z,54.55
2023-05-21T16:36:47.566Z,54.66
2023-05-21T16:39:14.477Z,54.92
2023-05-21T16:41:41.225Z,54.33
2023-05-21T16:44:07.842Z,54.46
2023-05-21T16:46:36.318Z,54.95
2023-05-21T16:49:02.858Z,55.43
2023-05-21T16:51:29.422Z,55.34
2023-05-21T16:53:56.031Z,55.19
2023-05-21T16:56:23.290Z,55.20
2023-05-21T16:58:50.025Z,55.41
2023-05-21T17:01:16.701Z,55.47
2023-05-21T17:03:43.660Z,54.94
2023-05-21T17:06:10.486Z,55.37
2023-05-21T17:08:37.130Z,55.38
2023-05-21T17:11:03.829Z,55.58
2023-05-21T17:13:30.428Z,56.01
2023-05-21T17:15:57.092Z,55.43
2023-05-21T17:18:23.720Z,56.03
2023-05-21T17:20:50.440Z,56.03
2023-05-21T17:23:17.563Z,55.81
2023-05-21T17:25:44.418Z,55.98
2023-05-21T17:28:11.433Z,56.60
2023-05-21T17:30:38.708Z,56.47
2023-05-21T17:33:06.501Z,56.69
2023-05-21T17:35:33.665Z,56.39
2023-05-21T17:38:00.350Z,57.22
2023-05-21T17:40:27.026Z,56.98
2023-05-21T17:42:53.636Z,57.03
2023-05-21T17:45:20.446Z,57.05
2023-05-21T17:47:47.581Z,57.01
2023-05-21T17:50:14.361Z,58.10
2023-05-21T17:52:41.022Z,57.75
2023-05-21T17:55:08.175Z,57.74
2023-05-21T17:57:36.086Z,57.54
2023-05-21T18:00:05.093Z,58.05
2023-05-21T18:02:32.077Z,57.64
2023-05-21T18:04:58.673Z,57.68
2023-05-21T18:07:25.670Z,57.76
2023-05-21T18:09:52.497Z,58.89
2023-05-21T18:12:19.161Z,58.79
2023-05-21T18:14:45.887Z,58.71
2023-05-21T18:17:12.676Z,58.81
2023-05-21T18:19:39.360Z,59.01
2023-05-21T18:22:06.423Z,59.17
2023-05-21T18:24:33.217Z,58.85
2023-05-21T18:27:00.184Z,59.53
2023-05-21T18:29:26.940Z,59.39
2023-05-21T18:31:53.905Z,60.08
2023-05-21T18:34:20.998Z,60.05
2023-05-21T18:36:48.279Z,59.85
2023-05-21T18:39:15.025Z,59.37
2023-05-21T18:41:41.825Z,60.01
2023-05-21T18:44:08.673Z,60.84
2023-05-21T18:46:35.408Z,60.51
2023-05-21T18:49:02.124Z,60.20
2023-05-21T18:51:28.722Z,60.58
2023-05-21T18:53:55.470Z,60.60
2023-05-21T18:56:22.225Z,61.04
2023-05-21T18:58:48.908Z,60.78
2023-05-21T19:01:16.403Z,60.41
2023-05-21T19:03:43.345Z,60.62
2023-05-21T19:06:10.002Z,61.33
2023-05-21T19:08:36.585Z,60.94
2023-05-21T19:11:03.300Z,61.23
2023-05-21T19:13:30.088Z,61.04
2023-05-21T19:15:58.416Z,61.83
2023-05-21T19:18:30.382Z,62.41
2023-05-21T19:20:57.710Z,63.01
2023-05-21T19:23:24.948Z,63.19
2023-05-21T19:25:51.905Z,62.83
2023-05-21T19:28:21.419Z,63.37
2023-05-21T19:30:48.208Z,63.44
2023-05-21T19:33:14.940Z,64.11
2023-05-21T19:35:43.192Z,64.17
2023-05-21T19:38:10.675Z,64.01
2023-05-21T19:40:37.525Z,63.60
2023-05-21T19:43:04.438Z,63.91
2023-05-21T19:45:31.369Z,64.95
2023-05-21T19:47:59.557Z,64.44
2023-05-21T19:50:28.517Z,65.07
2023-05-21T19:52:57.236Z,64.91
2023-05-21T19:55:24.751Z,64.85
2023-05-21T19:57:51.795Z,66.13
2023-05-21T20:00:19.021Z,66.51
2023-05-21T20:02:46.185Z,66.04
2023-05-21T20:05:13.091Z,65.83
2023-05-21T20:07:40.023Z,65.97
2023-05-21T20:10:07.466Z,66.04
2023-05-21T20:12:34.274Z,65.94
2023-05-21T20:15:01.039Z,66.73
2023-05-21T20:17:28.951Z,68.12
2023-05-21T20:19:57.264Z,67.60
2023-05-21T20:22:23.947Z,68.93
2023-05-21T20:24:50.742Z,66.85
2023-05-21T20:27:19.641Z,66.84
2023-05-21T20:29:46.870Z,66.68
2023-05-21T20:32:13.521Z,67.09
2023-05-21T20:34:54.412Z,69.05
2023-05-21T20:37:29.137Z,71.28
2023-05-21T20:39:58.531Z,69.66
2023-05-21T20:42:28.535Z,70.39
2023-05-21T20:44:55.570Z,70.42
2023-05-21T20:47:23.437Z,70.63
2023-05-21T20:49:53.744Z,71.20
2023-05-21T20:52:20.676Z,70.66
2023-05-21T20:54:48.921Z,71.22
2023-05-21T20:57:16.313Z,73.54
2023-05-21T20:59:43.312Z,71.61
2023-05-21T21:02:12.268Z,72.08
2023-05-21T21:04:40.011Z,74.44
2023-05-21T21:07:08.201Z,74.06
2023-05-21T21:09:35.128Z,73.66
2023-05-21T21:12:11.396Z,75.14
2023-05-21T21:14:48.028Z,74.22
2023-05-21T21:17:14.722Z,75.10
2023-05-21T21:19:41.659Z,75.72
2023-05-21T21:22:08.525Z,75.12
2023-05-21T21:24:35.026Z,74.59
2023-05-21T21:27:01.870Z,75.41
2023-05-21T21:29:28.678Z,76.83
2023-05-21T21:31:55.503Z,75.85
2023-05-21T21:34:23.456Z,75.15
2023-05-21T21:36:50.664Z,76.37
2023-05-21T21:39:18.979Z,75.88
2023-05-21T21:41:45.844Z,76.37
2023-05-21T21:44:12.403Z,76.38
2023-05-21T21:46:39.215Z,76.13
2023-05-21T21:49:05.801Z,75.49
2023-05-21T21:51:32.441Z,77.91
2023-05-21T21:53:58.978Z,76.61
2023-05-21T21:56:26.440Z,76.96
2023-05-21T21:58:53.171Z,75.67
2023-05-21T22:01:19.987Z,77.39
2023-05-21T22:03:46.895Z,76.39
2023-05-21T22:06:13.591Z,77.18
2023-05-21T22:08:40.119Z,76.80
2023-05-21T22:11:07.041Z,77.50
2023-05-21T22:13:34.438Z,76.79
2023-05-21T22:16:02.150Z,77.88
2023-05-21T22:18:40.156Z,77.53
2023-05-21T22:21:09.513Z,77.17
2023-05-21T22:23:37.224Z,77.81
2023-05-21T22:26:03.942Z,78.35
2023-05-21T22:28:30.533Z,78.20
2023-05-21T22:30:57.313Z,78.21
2023-05-21T22:33:24.672Z,79.29
2023-05-21T22:35:51.304Z,78.73
2023-05-21T22:38:18.041Z,78.26
2023-05-21T22:40:44.817Z,78.18
2023-05-21T22:43:11.439Z,80.51
2023-05-21T22:45:38.558Z,79.25
2023-05-21T22:48:08.477Z,80.82
2023-05-21T22:50:35.922Z,79.56
2023-05-21T22:53:02.925Z,78.84
2023-05-21T22:55:29.741Z,79.80
2023-05-21T22:57:56.303Z,79.48
2023-05-21T23:00:23.919Z,79.06
2023-05-21T23:02:53.857Z,78.95
2023-05-21T23:05:21.224Z,79.37
2023-05-21T23:07:47.916Z,78.72
2023-05-21T23:10:14.555Z,78.50
2023-05-21T23:12:41.382Z,79.30
2023-05-21T23:15:10.011Z,78.32
2023-05-21T23:17:37.751Z,77.36
2023-05-21T23:20:06.058Z,77.74
2023-05-21T23:22:32.794Z,76.52
2023-05-21T23:24:59.628Z,76.19
2023-05-21T23:27:26.311Z,76.32
2023-05-21T23:29:52.988Z,76.38
2023-05-21T23:32:19.774Z,75.39
2023-05-21T23:34:47.165Z,75.92
2023-05-21T23:37:13.926Z,76.44
2023-05-21T23:39:40.479Z,76.22
2023-05-21T23:42:07.498Z,77.03
2023-05-21T23:44:34.122Z,77.59
2023-05-21T23:47:00.846Z,78.45
2023-05-21T23:49:27.494Z,78.12
2023-05-21T23:51:54.285Z,78.30
2023-05-21T23:54:20.839Z,79.39
2023-05-21T23:56:47.549Z,80.87
2023-05-21T23:59:15.665Z,82.23
